createdAt,value
2023-02-22T00:01:07.374Z,6.80
2023-02-22T00:03:36.756Z,6.90
2023-02-22T00:06:07.130Z,7.10
2023-02-22T00:08:38.102Z,6.80
2023-02-22T00:11:09.149Z,6.70
2023-02-22T00:13:37.896Z,6.70
2023-02-22T00:16:08.139Z,6.60
2023-02-22T00:18:37.725Z,6.70
2023-02-22T00:21:10.477Z,6.70
2023-02-22T00:23:46.400Z,6.80
2023-02-22T00:26:18.715Z,6.80
2023-02-22T00:28:48.412Z,6.80
2023-02-22T00:31:17.211Z,6.90
2023-02-22T00:33:46.942Z,6.90
2023-02-22T00:36:15.601Z,6.90
2023-02-22T00:38:43.742Z,7.00
2023-02-22T00:41:13.102Z,7.00
2023-02-22T00:43:41.364Z,7.00
2023-02-22T00:46:09.356Z,7.00
2023-02-22T00:48:37.324Z,7.00
2023-02-22T00:51:07.296Z,7.10
2023-02-22T00:53:35.285Z,7.10
2023-02-22T00:56:03.253Z,7.10
2023-02-22T00:58:32.053Z,7.00
2023-02-22T01:01:00.092Z,7.00
2023-02-22T01:03:28.153Z,7.00
2023-02-22T01:05:56.379Z,7.00
2023-02-22T01:08:26.177Z,7.00
2023-02-22T01:10:54.158Z,7.00
2023-02-22T01:13:23.048Z,7.00
2023-02-22T01:15:51.343Z,6.90
2023-02-22T01:18:21.871Z,6.90
2023-02-22T01:20:49.996Z,6.90
2023-02-22T01:23:18.274Z,6.70
2023-02-22T01:25:47.693Z,6.60
2023-02-22T01:28:15.739Z,6.50
2023-02-22T01:30:43.785Z,6.30
2023-02-22T01:33:13.726Z,6.20
2023-02-22T01:35:43.270Z,6.10
2023-02-22T01:38:11.956Z,6.00
2023-02-22T01:40:43.045Z,5.90
2023-02-22T01:43:22.096Z,5.90
2023-02-22T01:46:00.713Z,5.80
2023-02-22T01:48:41.601Z,5.60
2023-02-22T01:51:14.813Z,5.50
2023-02-22T01:53:49.384Z,5.50
2023-02-22T01:56:19.346Z,5.50
2023-02-22T01:58:55.111Z,5.20
2023-02-22T02:01:27.021Z,5.30
2023-02-22T02:03:59.839Z,5.40
2023-02-22T02:06:32.479Z,5.40
2023-02-22T02:09:07.183Z,5.30
2023-02-22T02:11:35.408Z,5.20
2023-02-22T02:14:04.857Z,5.00
2023-02-22T02:16:40.182Z,5.00
2023-02-22T02:19:29.590Z,5.10
2023-02-22T02:22:23.124Z,5.10
2023-02-22T02:25:41.670Z,4.90
2023-02-22T02:28:46.765Z,5.10
2023-02-22T02:32:03.318Z,5.40
2023-02-22T02:34:37.658Z,5.10
2023-02-22T02:37:14.476Z,5.00
2023-02-22T02:39:50.843Z,4.90
2023-02-22T02:42:26.192Z,5.00
2023-02-22T02:45:08.675Z,4.90
2023-02-22T02:47:42.577Z,4.90
2023-02-22T02:50:18.492Z,4.90
2023-02-22T02:52:47.558Z,4.90
2023-02-22T02:55:16.092Z,4.90
2023-02-22T02:57:44.967Z,4.90
2023-02-22T03:00:23.209Z,4.80
2023-02-22T03:03:06.663Z,4.90
2023-02-22T03:05:59.486Z,5.10
2023-02-22T03:08:36.110Z,5.10
2023-02-22T03:11:15.125Z,5.00
2023-02-22T03:13:53.099Z,5.10
2023-02-22T03:16:31.145Z,5.10
2023-02-22T03:19:08.497Z,4.90
2023-02-22T03:21:46.606Z,5.00
2023-02-22T03:24:21.979Z,5.00
2023-02-22T03:26:58.179Z,5.30
2023-02-22T03:29:28.990Z,5.20
2023-02-22T03:32:01.470Z,5.30
2023-02-22T03:34:36.001Z,5.10
2023-02-22T03:37:14.535Z,5.10
2023-02-22T03:39:45.083Z,5.20
2023-02-22T03:42:20.324Z,5.30
2023-02-22T03:44:50.160Z,5.30
2023-02-22T03:47:24.075Z,5.30
2023-02-22T03:49:57.432Z,5.20
2023-02-22T03:52:27.159Z,5.20
2023-02-22T03:54:55.319Z,5.30
2023-02-22T03:57:28.892Z,5.30
2023-02-22T03:59:57.053Z,5.10
2023-02-22T04:02:25.027Z,5.10
2023-02-22T04:04:53.111Z,5.00
2023-02-22T04:07:21.154Z,5.20
2023-02-22T04:09:50.594Z,5.30
2023-02-22T04:12:18.697Z,5.00
2023-02-22T04:14:46.699Z,5.00
2023-02-22T04:17:14.698Z,4.80
2023-02-22T04:19:45.028Z,4.90
2023-02-22T04:22:13.110Z,4.90
2023-02-22T04:24:41.103Z,4.90
2023-02-22T04:27:10.453Z,4.80
2023-02-22T04:29:38.573Z,4.80
2023-02-22T04:32:06.717Z,4.70
2023-02-22T04:34:34.794Z,4.70
2023-02-22T04:37:03.580Z,4.80
2023-02-22T04:39:31.740Z,4.70
2023-02-22T04:41:59.746Z,4.70
2023-02-22T04:44:29.141Z,4.80
2023-02-22T04:46:57.514Z,4.90
2023-02-22T04:49:25.752Z,4.90
2023-02-22T04:51:53.754Z,4.70
2023-02-22T04:54:21.779Z,4.70
2023-02-22T04:56:49.801Z,4.70
2023-02-22T04:59:19.639Z,4.90
2023-02-22T05:01:48.941Z,4.90
2023-02-22T05:04:16.919Z,5.00
2023-02-22T05:06:44.974Z,5.00
2023-02-22T05:09:12.976Z,5.00
2023-02-22T05:11:41.028Z,4.90
2023-02-22T05:14:09.107Z,4.90
2023-02-22T05:16:37.141Z,5.10
2023-02-22T05:19:06.505Z,5.10
2023-02-22T05:21:34.639Z,5.20
2023-02-22T05:24:02.614Z,5.00
2023-02-22T05:26:30.609Z,5.00
2023-02-22T05:28:58.611Z,5.00
2023-02-22T05:31:26.697Z,5.00
2023-02-22T05:33:54.810Z,5.00
2023-02-22T05:36:24.243Z,4.90
2023-02-22T05:38:54.563Z,4.90
2023-02-22T05:41:22.749Z,4.90
2023-02-22T05:43:51.279Z,5.00
2023-02-22T05:46:19.271Z,5.10
2023-02-22T05:48:47.296Z,5.00
2023-02-22T05:51:15.638Z,5.00
2023-02-22T05:53:45.184Z,4.90
2023-02-22T05:56:13.178Z,5.00
2023-02-22T05:58:41.189Z,5.00
2023-02-22T06:01:09.200Z,4.90
2023-02-22T06:03:37.244Z,4.80
2023-02-22T06:06:05.703Z,4.70
2023-02-22T06:08:33.736Z,4.60
2023-02-22T06:11:03.043Z,4.50
2023-02-22T06:13:31.051Z,4.40
2023-02-22T06:15:59.157Z,4.40
2023-02-22T06:18:30.306Z,4.50
2023-02-22T06:20:58.480Z,4.40
2023-02-22T06:23:26.887Z,4.30
2023-02-22T06:25:54.916Z,4.30
2023-02-22T06:28:24.373Z,4.10
2023-02-22T06:30:52.387Z,4.10
2023-02-22T06:33:20.382Z,4.10
2023-02-22T06:35:48.363Z,4.00
2023-02-22T06:38:23.154Z,4.00
2023-02-22T06:40:51.355Z,4.30
2023-02-22T06:43:19.384Z,4.40
2023-02-22T06:45:49.158Z,4.40
2023-02-22T06:48:17.352Z,4.30
2023-02-22T06:50:45.392Z,4.40
2023-02-22T06:53:13.353Z,4.20
2023-02-22T06:55:41.391Z,4.20
2023-02-22T06:58:09.396Z,4.00
2023-02-22T07:00:37.502Z,3.90
2023-02-22T07:03:06.892Z,4.00
2023-02-22T07:05:35.255Z,4.00
2023-02-22T07:08:07.310Z,4.00
2023-02-22T07:10:37.439Z,4.00
2023-02-22T07:13:08.554Z,4.00
2023-02-22T07:15:37.323Z,4.10
2023-02-22T07:18:07.347Z,4.40
2023-02-22T07:20:36.223Z,4.40
2023-02-22T07:23:04.937Z,4.50
2023-02-22T07:25:33.218Z,4.70
2023-02-22T07:28:01.324Z,4.70
2023-02-22T07:30:32.411Z,4.60
2023-02-22T07:33:02.178Z,4.70
2023-02-22T07:35:33.567Z,4.70
2023-02-22T07:38:01.522Z,4.80
2023-02-22T07:40:29.888Z,4.90
2023-02-22T07:43:01.397Z,4.90
2023-02-22T07:45:33.108Z,5.00
2023-02-22T07:48:03.226Z,5.10
2023-02-22T07:50:34.935Z,5.50
2023-02-22T07:53:05.851Z,5.60
2023-02-22T07:55:35.250Z,5.80
2023-02-22T07:58:05.904Z,6.00
2023-02-22T08:00:36.770Z,6.30
2023-02-22T08:03:08.273Z,6.40
2023-02-22T08:05:40.195Z,6.70
2023-02-22T08:08:09.276Z,7.00
2023-02-22T08:10:37.985Z,7.30
2023-02-22T08:13:06.816Z,7.50
2023-02-22T08:15:38.213Z,7.70
2023-02-22T08:18:10.298Z,8.00
2023-02-22T08:20:43.113Z,8.20
2023-02-22T08:23:13.888Z,8.40
2023-02-22T08:25:42.146Z,8.60
2023-02-22T08:28:13.377Z,8.80
2023-02-22T08:30:42.768Z,9.10
2023-02-22T08:33:14.384Z,9.30
2023-02-22T08:35:44.120Z,9.50
2023-02-22T08:38:19.831Z,9.70
2023-02-22T08:40:49.467Z,10.80
2023-02-22T08:43:18.386Z,11.60
2023-02-22T08:45:47.025Z,12.00
2023-02-22T08:48:15.630Z,12.00
2023-02-22T08:50:45.662Z,11.70
2023-02-22T08:53:16.262Z,11.20
2023-02-22T08:55:44.798Z,11.20
2023-02-22T08:58:13.997Z,10.90
2023-02-22T09:00:44.543Z,11.00
2023-02-22T09:03:15.362Z,11.00
2023-02-22T09:05:45.863Z,10.90
2023-02-22T09:08:14.693Z,10.80
2023-02-22T09:10:43.121Z,10.30
2023-02-22T09:13:13.466Z,10.50
2023-02-22T09:15:41.682Z,10.60
2023-02-22T09:18:14.515Z,10.50
2023-02-22T09:20:44.591Z,10.50
2023-02-22T09:23:14.470Z,10.40
2023-02-22T09:25:42.759Z,10.20
2023-02-22T09:28:11.308Z,10.20
2023-02-22T09:30:39.819Z,10.10
2023-02-22T09:33:11.333Z,9.50
2023-02-22T09:35:42.774Z,9.30
2023-02-22T09:38:13.113Z,9.10
2023-02-22T09:40:45.740Z,9.40
2023-02-22T09:43:35.570Z,9.30
2023-02-22T09:46:20.257Z,9.30
2023-02-22T09:49:05.343Z,9.40
2023-02-22T09:51:41.343Z,9.70
2023-02-22T09:54:20.781Z,9.50
2023-02-22T09:56:51.552Z,9.70
2023-02-22T09:59:27.972Z,9.40
2023-02-22T10:02:06.629Z,9.70
2023-02-22T10:04:47.446Z,9.40
2023-02-22T10:07:25.955Z,9.00
2023-02-22T10:09:56.652Z,8.70
2023-02-22T10:12:31.128Z,8.70
2023-02-22T10:15:35.154Z,8.90
2023-02-22T10:18:40.206Z,8.80
2023-02-22T10:21:21.844Z,8.90
2023-02-22T10:24:02.249Z,9.00
2023-02-22T10:26:37.174Z,9.20
2023-02-22T10:29:13.566Z,9.30
2023-02-22T10:31:46.696Z,9.10
2023-02-22T10:34:18.019Z,9.10
2023-02-22T10:36:50.146Z,8.80
2023-02-22T10:39:28.755Z,9.00
2023-02-22T10:42:05.885Z,9.10
2023-02-22T10:44:34.812Z,9.30
2023-02-22T10:47:06.487Z,9.20
2023-02-22T10:49:40.158Z,9.30
2023-02-22T10:52:15.817Z,9.10
2023-02-22T10:54:48.012Z,9.60
2023-02-22T10:57:23.119Z,9.80
2023-02-22T10:59:52.404Z,9.80
2023-02-22T11:02:24.676Z,9.40
2023-02-22T11:04:55.344Z,9.20
2023-02-22T11:07:28.144Z,9.30
2023-02-22T11:09:59.446Z,9.40
2023-02-22T11:12:33.062Z,9.30
2023-02-22T11:15:29.455Z,9.00
2023-02-22T11:18:01.388Z,8.90
2023-02-22T11:20:34.557Z,9.10
2023-02-22T11:23:04.998Z,9.00
2023-02-22T11:25:35.920Z,9.00
2023-02-22T11:28:14.855Z,9.20
2023-02-22T11:30:45.012Z,9.20
2023-02-22T11:33:23.964Z,9.50
2023-02-22T11:35:55.476Z,9.80
2023-02-22T11:38:26.087Z,9.90
2023-02-22T11:41:14.554Z,10.50
2023-02-22T11:43:46.405Z,11.00
2023-02-22T11:46:18.838Z,12.10
2023-02-22T11:48:59.028Z,12.20
2023-02-22T11:51:54.464Z,12.50
2023-02-22T11:54:53.020Z,13.40
2023-02-22T11:57:46.319Z,13.80
2023-02-22T12:00:25.404Z,13.80
2023-02-22T12:03:17.973Z,14.30
2023-02-22T12:06:07.062Z,13.90
2023-02-22T12:08:53.486Z,14.30
2023-02-22T12:11:29.290Z,14.50
2023-02-22T12:14:13.838Z,15.00
2023-02-22T12:17:14.139Z,15.00
2023-02-22T12:19:46.412Z,15.10
2023-02-22T12:22:21.297Z,14.80
2023-02-22T12:25:08.559Z,14.70
2023-02-22T12:27:42.493Z,14.30
2023-02-22T12:30:20.081Z,13.90
2023-02-22T12:32:55.059Z,13.50
2023-02-22T12:35:26.426Z,13.10
2023-02-22T12:38:05.050Z,13.20
2023-02-22T12:40:40.587Z,13.60
2023-02-22T12:43:17.485Z,13.60
2023-02-22T12:45:51.727Z,13.50
2023-02-22T12:48:34.376Z,13.50
2023-02-22T12:51:16.970Z,13.60
2023-02-22T12:53:53.201Z,13.40
2023-02-22T12:56:27.145Z,13.20
2023-02-22T12:59:02.819Z,13.00
2023-02-22T13:01:39.026Z,13.00
2023-02-22T13:04:20.090Z,13.00
2023-02-22T13:07:03.129Z,13.20
2023-02-22T13:10:20.335Z,13.30
2023-02-22T13:12:59.106Z,13.30
2023-02-22T13:15:34.072Z,13.40
2023-02-22T13:18:13.482Z,13.20
2023-02-22T13:20:48.792Z,13.00
2023-02-22T13:23:27.255Z,12.90
2023-02-22T13:26:00.378Z,12.80
2023-02-22T13:28:37.695Z,12.50
2023-02-22T13:31:28.336Z,12.70
2023-02-22T13:34:17.617Z,12.60
2023-02-22T13:37:08.470Z,12.60
2023-02-22T13:40:19.888Z,12.40
2023-02-22T13:43:11.902Z,12.50
2023-02-22T13:46:00.324Z,12.50
2023-02-22T13:49:08.786Z,12.60
2023-02-22T13:51:50.565Z,12.70
2023-02-22T13:54:29.965Z,12.60
2023-02-22T13:56:58.833Z,12.70
2023-02-22T13:59:31.674Z,12.70
2023-02-22T14:02:04.251Z,12.80
2023-02-22T14:04:42.047Z,13.00
2023-02-22T14:07:49.353Z,13.00
2023-02-22T14:10:39.762Z,12.70
2023-02-22T14:13:10.059Z,12.80
2023-02-22T14:16:16.925Z,12.70
2023-02-22T14:18:49.352Z,12.80
2023-02-22T14:21:20.493Z,12.80
2023-02-22T14:23:51.948Z,12.80
2023-02-22T14:26:27.409Z,12.80
2023-02-22T14:28:58.695Z,12.70
2023-02-22T14:31:36.422Z,12.80
2023-02-22T14:34:12.060Z,12.40
2023-02-22T14:36:50.769Z,12.30
2023-02-22T14:39:27.156Z,11.90
2023-02-22T14:42:01.436Z,11.80
2023-02-22T14:44:35.860Z,11.80
2023-02-22T14:47:08.264Z,11.80
2023-02-22T14:49:42.517Z,12.00
2023-02-22T14:52:24.120Z,11.90
2023-02-22T14:55:08.938Z,12.20
2023-02-22T14:57:53.596Z,12.30
2023-02-22T15:00:39.995Z,12.30
2023-02-22T15:03:18.701Z,12.40
2023-02-22T15:05:47.146Z,12.80
2023-02-22T15:08:18.076Z,12.80
2023-02-22T15:10:49.902Z,12.80
2023-02-22T15:13:21.112Z,12.90
2023-02-22T15:15:55.722Z,12.90
2023-02-22T15:18:29.990Z,13.00
2023-02-22T15:21:05.204Z,13.00
2023-02-22T15:23:43.854Z,13.00
2023-02-22T15:26:20.741Z,13.00
2023-02-22T15:28:49.186Z,12.90
2023-02-22T15:31:29.128Z,12.70
2023-02-22T15:33:57.677Z,12.70
2023-02-22T15:36:30.940Z,12.80
2023-02-22T15:38:59.135Z,12.80
2023-02-22T15:41:32.387Z,12.70
2023-02-22T15:44:14.130Z,12.70
2023-02-22T15:46:49.514Z,12.60
2023-02-22T15:49:25.945Z,12.70
2023-02-22T15:52:08.428Z,12.70
2023-02-22T15:54:46.077Z,12.50
2023-02-22T15:57:21.622Z,12.40
2023-02-22T15:59:53.827Z,12.30
2023-02-22T16:02:34.787Z,12.30
2023-02-22T16:05:08.502Z,12.40
2023-02-22T16:07:42.054Z,12.20
2023-02-22T16:10:22.535Z,12.20
2023-02-22T16:13:04.499Z,12.20
2023-02-22T16:15:34.089Z,12.00
2023-02-22T16:18:31.227Z,12.00
2023-02-22T16:21:02.743Z,11.80
2023-02-22T16:23:33.512Z,11.60
2023-02-22T16:26:24.088Z,11.50
2023-02-22T16:28:56.668Z,11.40
2023-02-22T16:31:27.635Z,11.50
2023-02-22T16:33:56.533Z,11.40
2023-02-22T16:36:38.594Z,11.40
2023-02-22T16:39:08.377Z,11.40
2023-02-22T16:41:36.414Z,11.20
2023-02-22T16:44:10.168Z,11.20
2023-02-22T16:46:38.683Z,11.00
2023-02-22T16:49:06.880Z,10.70
2023-02-22T16:51:43.285Z,10.70
2023-02-22T16:54:14.041Z,10.50
2023-02-22T16:56:42.358Z,10.60
2023-02-22T16:59:15.123Z,10.70
2023-02-22T17:01:44.001Z,10.60
2023-02-22T17:04:17.985Z,10.20
2023-02-22T17:06:46.053Z,10.40
2023-02-22T17:09:15.256Z,10.20
2023-02-22T17:11:44.712Z,10.10
2023-02-22T17:14:20.662Z,10.00
2023-02-22T17:16:48.663Z,9.90
2023-02-22T17:19:19.360Z,9.80
2023-02-22T17:21:48.010Z,9.70
2023-02-22T17:24:19.993Z,9.70
2023-02-22T17:26:48.072Z,9.90
2023-02-22T17:29:18.626Z,9.70
2023-02-22T17:31:48.811Z,9.60
2023-02-22T17:34:17.841Z,9.50
2023-02-22T17:36:46.016Z,9.70
2023-02-22T17:39:13.967Z,9.80
2023-02-22T17:41:42.080Z,9.80
2023-02-22T17:44:10.235Z,9.50
2023-02-22T17:46:41.671Z,9.50
2023-02-22T17:49:09.734Z,9.50
2023-02-22T17:51:41.569Z,9.30
2023-02-22T17:54:10.500Z,9.30
2023-02-22T17:56:38.598Z,9.20
2023-02-22T17:59:09.018Z,9.10
2023-02-22T18:01:38.780Z,9.20
2023-02-22T18:04:07.364Z,9.10
2023-02-22T18:06:36.228Z,9.10
2023-02-22T18:09:10.580Z,9.20
2023-02-22T18:11:40.265Z,9.40
2023-02-22T18:14:10.694Z,9.40
2023-02-22T18:16:40.590Z,9.50
2023-02-22T18:19:08.626Z,9.40
2023-02-22T18:21:38.726Z,9.40
2023-02-22T18:24:07.787Z,9.30
2023-02-22T18:26:38.868Z,9.20
2023-02-22T18:29:07.471Z,9.20
2023-02-22T18:31:35.514Z,9.20
2023-02-22T18:34:04.947Z,9.20
2023-02-22T18:36:32.956Z,9.10
2023-02-22T18:39:01.028Z,9.00
2023-02-22T18:41:29.052Z,8.90
2023-02-22T18:44:00.337Z,8.90
2023-02-22T18:46:29.894Z,9.10
2023-02-22T18:48:58.908Z,9.00
2023-02-22T18:51:29.584Z,9.00
2023-02-22T18:54:00.420Z,8.90
2023-02-22T18:56:30.685Z,8.90
2023-02-22T18:59:00.929Z,8.80
2023-02-22T19:01:29.957Z,8.90
2023-02-22T19:03:58.068Z,8.90
2023-02-22T19:06:27.759Z,8.80
2023-02-22T19:08:55.782Z,8.70
2023-02-22T19:11:25.590Z,8.80
2023-02-22T19:13:57.232Z,8.80
2023-02-22T19:16:27.809Z,8.80
2023-02-22T19:18:57.923Z,8.80
2023-02-22T19:21:29.095Z,8.80
2023-02-22T19:23:57.615Z,8.70
2023-02-22T19:26:28.998Z,8.80
2023-02-22T19:28:59.530Z,8.90
2023-02-22T19:31:31.632Z,8.70
2023-02-22T19:34:02.572Z,8.70
2023-02-22T19:36:32.581Z,8.70
2023-02-22T19:39:01.666Z,8.60
2023-02-22T19:41:30.633Z,8.60
2023-02-22T19:43:59.380Z,8.60
2023-02-22T19:46:28.135Z,8.50
2023-02-22T19:48:56.589Z,8.40
2023-02-22T19:51:30.138Z,8.50
2023-02-22T19:54:03.371Z,8.40
2023-02-22T19:56:32.477Z,8.40
2023-02-22T19:59:09.591Z,8.40
2023-02-22T20:01:38.433Z,8.40
2023-02-22T20:04:09.099Z,8.40
2023-02-22T20:06:40.132Z,8.30
2023-02-22T20:09:12.687Z,8.20
2023-02-22T20:11:41.203Z,8.20
2023-02-22T20:14:09.230Z,8.10
2023-02-22T20:16:38.269Z,8.30
2023-02-22T20:19:07.809Z,8.40
2023-02-22T20:21:37.053Z,8.50
2023-02-22T20:24:08.392Z,8.60
2023-02-22T20:26:39.184Z,8.50
2023-02-22T20:29:09.234Z,8.50
2023-02-22T20:31:39.231Z,8.30
2023-02-22T20:34:07.652Z,8.30
2023-02-22T20:36:37.578Z,8.40
2023-02-22T20:39:13.014Z,8.30
2023-02-22T20:41:46.932Z,8.40
2023-02-22T20:44:18.293Z,8.40
2023-02-22T20:46:48.092Z,8.40
2023-02-22T20:49:19.650Z,8.40
2023-02-22T20:51:49.970Z,8.30
2023-02-22T20:54:19.362Z,8.30
2023-02-22T20:56:52.666Z,8.30
2023-02-22T20:59:22.569Z,8.40
2023-02-22T21:01:52.972Z,8.30
2023-02-22T21:04:23.758Z,8.20
2023-02-22T21:06:53.441Z,8.40
2023-02-22T21:09:23.809Z,8.30
2023-02-22T21:11:54.040Z,8.40
2023-02-22T21:14:24.360Z,8.70
2023-02-22T21:16:54.409Z,8.60
2023-02-22T21:19:26.727Z,8.50
2023-02-22T21:21:57.011Z,8.70
2023-02-22T21:24:27.986Z,8.80
2023-02-22T21:26:58.966Z,8.70
2023-02-22T21:29:28.468Z,8.40
2023-02-22T21:31:57.982Z,8.40
2023-02-22T21:34:27.080Z,8.40
2023-02-22T21:36:56.990Z,8.30
2023-02-22T21:39:28.684Z,8.20
2023-02-22T21:42:00.386Z,8.10
2023-02-22T21:44:29.177Z,8.10
2023-02-22T21:46:57.616Z,8.10
2023-02-22T21:49:26.164Z,8.00
2023-02-22T21:51:54.118Z,8.10
2023-02-22T21:54:23.316Z,8.10
2023-02-22T21:56:51.922Z,8.20
2023-02-22T21:59:23.633Z,8.10
2023-02-22T22:01:55.567Z,8.20
2023-02-22T22:04:27.528Z,8.20
2023-02-22T22:06:58.313Z,8.20
2023-02-22T22:09:29.054Z,8.20
2023-02-22T22:12:00.015Z,8.20
2023-02-22T22:14:29.423Z,8.20
2023-02-22T22:16:59.544Z,8.20
2023-02-22T22:19:29.085Z,8.40
2023-02-22T22:21:57.377Z,8.40
2023-02-22T22:24:27.051Z,8.50
2023-02-22T22:26:56.042Z,8.50
2023-02-22T22:29:26.506Z,8.50
2023-02-22T22:31:56.589Z,8.60
2023-02-22T22:34:29.255Z,8.50
2023-02-22T22:36:58.864Z,8.50
2023-02-22T22:39:27.677Z,8.60
2023-02-22T22:41:56.274Z,8.60
2023-02-22T22:44:24.329Z,8.70
2023-02-22T22:46:54.671Z,8.60
2023-02-22T22:49:25.476Z,8.80
2023-02-22T22:51:54.458Z,8.80
2023-02-22T22:54:22.464Z,8.90
2023-02-22T22:56:50.448Z,8.90
2023-02-22T22:59:18.465Z,8.90
2023-02-22T23:01:46.473Z,8.80
2023-02-22T23:04:17.186Z,8.90
2023-02-22T23:06:49.802Z,9.00
2023-02-22T23:09:21.719Z,9.00
2023-02-22T23:11:53.271Z,8.90
2023-02-22T23:14:24.027Z,8.80
2023-02-22T23:16:55.136Z,9.00
2023-02-22T23:19:23.847Z,9.00
2023-02-22T23:21:55.865Z,8.90
2023-02-22T23:24:27.185Z,9.00
2023-02-22T23:26:59.813Z,9.20
2023-02-22T23:29:29.773Z,9.00
2023-02-22T23:31:58.659Z,9.10
2023-02-22T23:34:28.937Z,9.10
2023-02-22T23:36:58.571Z,9.00
2023-02-22T23:39:27.223Z,9.00
2023-02-22T23:41:59.012Z,9.10
2023-02-22T23:44:27.515Z,9.10
2023-02-22T23:46:56.071Z,9.10
2023-02-22T23:49:26.741Z,9.00
2023-02-22T23:51:55.628Z,9.00
2023-02-22T23:54:25.278Z,9.10
2023-02-22T23:56:56.645Z,9.20
2023-02-22T23:59:25.908Z,9.10
